KSJC/SJC METAR and TAF weather

Enter ICAO airport designator
Station Type Date Time Source
KSJC METAR 2021/07/29 02:53 UTC NOAA

KSJC 290253Z 30008KT 10SM FEW050 SCT100 SCT160 22/13 A2997 RMK AO2 SLP147 T02170133 53005


Station Type Date Time Source
KSJC Decoded METAR 2021/07/29 02:53 UTC NOAA

SAN JOSE INTERNATIONAL AIRPORT, CA, United States (KSJC) 37-22N 121-55W 25M
Jul 28, 2021 - 10:53 PM EDT / 2021.07.29 0253 UTC
Wind: from the WNW (300 degrees) at 9 MPH (8 KT):0
Visibility: 10 mile(s):0
Sky conditions: partly cloudy
Temperature: 71.1 F (21.7 C)
Dew Point: 55.9 F (13.3 C)
Relative Humidity: 58%
Pressure (altimeter): 29.97 in. Hg (1014 hPa)
Pressure tendency: 0.01 inches (0.5 hPa) higher than three hours ago
ob: KSJC 290253Z 30008KT 10SM FEW050 SCT100 SCT160 22/13 A2997 RMK AO2 SLP147 T02170133 53005
cycle: 3

Station Type Date Time Source
KSJC TAF 2021/07/28 18:34 UTC NOAA

TAF KSJC 281731Z 2818/2918 VRB06KT P6SM FEW010 SCT100
FM282100 33010KT P6SM SKC
FM290500 32005KT P6SM SKC
FM290900 VRB03KT P6SM SCT011
FM291200 VRB03KT P6SM BKN009
FM291600 VRB03KT P6SM FEW011

Example: see airport list